sensor_id;sensor_type;location;lat;lon;timestamp;pressure;altitude;pressure_sealevel;temperature;humidity
69247;BME280;56358;56.328;43.992;2023-03-25T00:01:53;99573.94;;;5.48;84.71
69247;BME280;56358;56.328;43.992;2023-03-25T00:03:53;99561.41;;;5.37;85.02
69247;BME280;56358;56.328;43.992;2023-03-25T00:05:55;99556.84;;;5.39;85.25
69247;BME280;56358;56.328;43.992;2023-03-25T00:07:56;99488.97;;;4.96;85.09
69247;BME280;56358;56.328;43.992;2023-03-25T00:09:57;99570.41;;;5.47;84.90
69247;BME280;56358;56.328;43.992;2023-03-25T00:11:57;99578.41;;;5.47;84.88
69247;BME280;56358;56.328;43.992;2023-03-25T00:13:58;99534.41;;;5.30;84.91
69247;BME280;56358;56.328;43.992;2023-03-25T00:16:01;99425.06;;;4.61;84.83
69247;BME280;56358;56.328;43.992;2023-03-25T00:18:02;99560.97;;;5.43;85.06
69247;BME280;56358;56.328;43.992;2023-03-25T00:20:04;99577.03;;;5.42;85.00
69247;BME280;56358;56.328;43.992;2023-03-25T00:22:08;99565.66;;;5.40;85.27
69247;BME280;56358;56.328;43.992;2023-03-25T00:24:12;99563.44;;;5.33;85.60
69247;BME280;56358;56.328;43.992;2023-03-25T00:26:17;99566.94;;;5.34;85.36
69247;BME280;56358;56.328;43.992;2023-03-25T00:28:17;99467.31;;;4.77;85.37
69247;BME280;56358;56.328;43.992;2023-03-25T00:30:18;99560.03;;;5.31;85.50
69247;BME280;56358;56.328;43.992;2023-03-25T00:32:19;99545.78;;;5.19;85.51
69247;BME280;56358;56.328;43.992;2023-03-25T00:34:20;99566.28;;;5.30;85.63
69247;BME280;56358;56.328;43.992;2023-03-25T00:36:20;99565.44;;;5.30;85.73
69247;BME280;56358;56.328;43.992;2023-03-25T00:38:21;99573.44;;;5.30;85.53
69247;BME280;56358;56.328;43.992;2023-03-25T00:40:29;99550.50;;;5.16;85.67
69247;BME280;56358;56.328;43.992;2023-03-25T00:42:33;99581.50;;;5.28;85.72
69247;BME280;56358;56.328;43.992;2023-03-25T00:44:34;99576.31;;;5.27;85.84
69247;BME280;56358;56.328;43.992;2023-03-25T00:46:35;99553.69;;;5.08;85.91
69247;BME280;56358;56.328;43.992;2023-03-25T00:48:35;99565.03;;;5.10;86.28
69247;BME280;56358;56.328;43.992;2023-03-25T00:50:37;99523.50;;;4.83;86.16
69247;BME280;56358;56.328;43.992;2023-03-25T00:52:37;99496.53;;;4.64;85.96
69247;BME280;56358;56.328;43.992;2023-03-25T00:54:38;99556.34;;;4.95;86.20
69247;BME280;56358;56.328;43.992;2023-03-25T00:56:39;99567.28;;;5.03;86.32
69247;BME280;56358;56.328;43.992;2023-03-25T00:58:39;99492.50;;;4.58;86.45
69247;BME280;56358;56.328;43.992;2023-03-25T01:00:40;99576.53;;;5.11;86.39
69247;BME280;56358;56.328;43.992;2023-03-25T01:02:41;99519.91;;;4.72;86.33
69247;BME280;56358;56.328;43.992;2023-03-25T01:04:42;99580.13;;;5.10;86.46
69247;BME280;56358;56.328;43.992;2023-03-25T01:06:45;99434.28;;;4.16;86.28
69247;BME280;56358;56.328;43.992;2023-03-25T01:08:45;99584.69;;;5.08;86.66
69247;BME280;56358;56.328;43.992;2023-03-25T01:10:46;99561.53;;;4.97;86.63
69247;BME280;56358;56.328;43.992;2023-03-25T01:12:47;99581.19;;;5.07;86.67
69247;BME280;56358;56.328;43.992;2023-03-25T01:14:48;99579.38;;;5.08;86.86
69247;BME280;56358;56.328;43.992;2023-03-25T01:16:49;99582.16;;;5.06;86.96
69247;BME280;56358;56.328;43.992;2023-03-25T01:18:49;99576.94;;;5.04;87.14
69247;BME280;56358;56.328;43.992;2023-03-25T01:20:50;99502.38;;;4.56;87.15
69247;BME280;56358;56.328;43.992;2023-03-25T01:22:51;99571.09;;;4.99;87.26
69247;BME280;56358;56.328;43.992;2023-03-25T01:24:52;99579.28;;;4.96;86.84
69247;BME280;56358;56.328;43.992;2023-03-25T01:26:52;99587.03;;;4.99;87.00
69247;BME280;56358;56.328;43.992;2023-03-25T01:28:53;99592.66;;;5.08;87.14
69247;BME280;56358;56.328;43.992;2023-03-25T01:31:13;99580.97;;;5.10;86.90
69247;BME280;56358;56.328;43.992;2023-03-25T01:33:14;99560.69;;;4.96;86.69
69247;BME280;56358;56.328;43.992;2023-03-25T01:35:15;99577.81;;;5.05;86.88
69247;BME280;56358;56.328;43.992;2023-03-25T01:37:16;99575.47;;;5.00;86.96
69247;BME280;56358;56.328;43.992;2023-03-25T01:39:17;99483.91;;;4.55;86.33
69247;BME280;56358;56.328;43.992;2023-03-25T01:41:18;99576.31;;;5.01;86.25
69247;BME280;56358;56.328;43.992;2023-03-25T01:43:20;99582.25;;;5.04;86.71
69247;BME280;56358;56.328;43.992;2023-03-25T01:45:22;99573.34;;;5.06;86.37
69247;BME280;56358;56.328;43.992;2023-03-25T01:47:23;99428.97;;;4.16;86.17
69247;BME280;56358;56.328;43.992;2023-03-25T01:49:29;99564.53;;;4.92;86.13
69247;BME280;56358;56.328;43.992;2023-03-25T01:51:38;99558.13;;;4.82;86.10
69247;BME280;56358;56.328;43.992;2023-03-25T01:53:40;99567.47;;;4.87;86.21
69247;BME280;56358;56.328;43.992;2023-03-25T01:55:42;99582.28;;;4.92;85.93
69247;BME280;56358;56.328;43.992;2023-03-25T01:57:44;99585.00;;;4.90;86.39
69247;BME280;56358;56.328;43.992;2023-03-25T01:59:46;99571.31;;;4.83;86.19
69247;BME280;56358;56.328;43.992;2023-03-25T02:01:47;99477.16;;;4.23;86.17
69247;BME280;56358;56.328;43.992;2023-03-25T02:03:49;99579.59;;;4.79;86.31
69247;BME280;56358;56.328;43.992;2023-03-25T02:06:06;99584.25;;;4.75;86.36
69247;BME280;56358;56.328;43.992;2023-03-25T02:08:08;99586.38;;;4.70;86.05
69247;BME280;56358;56.328;43.992;2023-03-25T02:10:10;99521.66;;;4.19;85.86
69247;BME280;56358;56.328;43.992;2023-03-25T02:12:12;99604.53;;;4.63;86.38
69247;BME280;56358;56.328;43.992;2023-03-25T02:14:16;99598.59;;;4.60;86.69
69247;BME280;56358;56.328;43.992;2023-03-25T02:18:46;99464.34;;;3.77;86.71
69247;BME280;56358;56.328;43.992;2023-03-25T02:37:17;99604.69;;;4.34;88.02
69247;BME280;56358;56.328;43.992;2023-03-25T02:39:48;99613.47;;;4.35;88.37
69247;BME280;56358;56.328;43.992;2023-03-25T02:42:25;99617.00;;;4.35;88.14
69247;BME280;56358;56.328;43.992;2023-03-25T02:44:41;99630.34;;;4.34;88.41
69247;BME280;56358;56.328;43.992;2023-03-25T02:46:51;99619.72;;;4.21;88.56
69247;BME280;56358;56.328;43.992;2023-03-25T02:48:55;99641.59;;;4.25;88.63
69247;BME280;56358;56.328;43.992;2023-03-25T02:51:01;99599.59;;;3.90;88.94
69247;BME280;56358;56.328;43.992;2023-03-25T02:53:09;99588.25;;;3.88;88.86
69247;BME280;56358;56.328;43.992;2023-03-25T02:55:13;99640.94;;;4.21;88.63
69247;BME280;56358;56.328;43.992;2023-03-25T02:57:18;99645.28;;;4.22;88.89
69247;BME280;56358;56.328;43.992;2023-03-25T02:59:21;99638.66;;;4.15;88.82
69247;BME280;56358;56.328;43.992;2023-03-25T03:01:21;99657.91;;;4.18;88.75
69247;BME280;56358;56.328;43.992;2023-03-25T03:03:27;99659.16;;;4.13;88.63
69247;BME280;56358;56.328;43.992;2023-03-25T03:07:35;99516.06;;;3.28;88.67
69247;BME280;56358;56.328;43.992;2023-03-25T03:09:45;99639.34;;;4.04;88.54
69247;BME280;56358;56.328;43.992;2023-03-25T03:14:17;99643.50;;;4.08;88.56
69247;BME280;56358;56.328;43.992;2023-03-25T03:18:40;99633.84;;;4.07;88.61
69247;BME280;56358;56.328;43.992;2023-03-25T03:23:27;99662.09;;;4.08;88.77
69247;BME280;56358;56.328;43.992;2023-03-25T03:25:44;99650.28;;;3.99;88.63
69247;BME280;56358;56.328;43.992;2023-03-25T03:28:01;99661.91;;;4.11;88.39
69247;BME280;56358;56.328;43.992;2023-03-25T03:30:10;99640.50;;;4.00;88.63
69247;BME280;56358;56.328;43.992;2023-03-25T03:32:17;99662.84;;;4.10;88.39
69247;BME280;56358;56.328;43.992;2023-03-25T03:34:50;99657.34;;;4.13;88.21
69247;BME280;56358;56.328;43.992;2023-03-25T03:36:54;99645.53;;;4.05;88.00
69247;BME280;56358;56.328;43.992;2023-03-25T03:39:03;99659.59;;;4.19;88.05
69247;BME280;56358;56.328;43.992;2023-03-25T03:41:09;99654.19;;;4.21;87.83
69247;BME280;56358;56.328;43.992;2023-03-25T03:43:18;99663.75;;;4.24;87.81
69247;BME280;56358;56.328;43.992;2023-03-25T03:45:29;99654.75;;;4.26;87.78
69247;BME280;56358;56.328;43.992;2023-03-25T03:47:40;99636.22;;;4.12;87.67
69247;BME280;56358;56.328;43.992;2023-03-25T03:49:46;99655.59;;;4.27;87.68
69247;BME280;56358;56.328;43.992;2023-03-25T03:51:56;99572.34;;;3.88;87.47
69247;BME280;56358;56.328;43.992;2023-03-25T03:56:14;99649.81;;;4.47;86.91
69247;BME280;56358;56.328;43.992;2023-03-25T03:58:23;99643.56;;;4.48;86.49
69247;BME280;56358;56.328;43.992;2023-03-25T04:00:36;99645.38;;;4.48;86.23
69247;BME280;56358;56.328;43.992;2023-03-25T04:02:48;99648.78;;;4.50;86.18
69247;BME280;56358;56.328;43.992;2023-03-25T04:04:50;99628.25;;;4.39;86.16
69247;BME280;56358;56.328;43.992;2023-03-25T04:07:07;99651.25;;;4.53;86.01
69247;BME280;56358;56.328;43.992;2023-03-25T04:09:20;99647.09;;;4.62;85.67
69247;BME280;56358;56.328;43.992;2023-03-25T04:11:34;99582.06;;;4.29;85.60
69247;BME280;56358;56.328;43.992;2023-03-25T04:13:41;99639.81;;;4.65;85.10
69247;BME280;56358;56.328;43.992;2023-03-25T04:15:43;99651.06;;;4.69;85.25
69247;BME280;56358;56.328;43.992;2023-03-25T04:17:44;99632.28;;;4.72;84.91
69247;BME280;56358;56.328;43.992;2023-03-25T04:19:47;99638.31;;;4.74;84.77
69247;BME280;56358;56.328;43.992;2023-03-25T04:21:48;99628.66;;;4.73;84.40
69247;BME280;56358;56.328;43.992;2023-03-25T04:23:48;99647.59;;;4.81;84.26
69247;BME280;56358;56.328;43.992;2023-03-25T04:25:49;99635.25;;;4.80;84.11
69247;BME280;56358;56.328;43.992;2023-03-25T04:27:52;99644.50;;;4.75;83.51
69247;BME280;56358;56.328;43.992;2023-03-25T04:29:58;99646.50;;;4.71;83.60
69247;BME280;56358;56.328;43.992;2023-03-25T04:32:01;99625.19;;;4.45;83.48
69247;BME280;56358;56.328;43.992;2023-03-25T04:34:01;99664.69;;;4.50;83.65
69247;BME280;56358;56.328;43.992;2023-03-25T04:36:04;99649.09;;;4.45;83.75
69247;BME280;56358;56.328;43.992;2023-03-25T04:38:06;99643.28;;;4.26;83.50
69247;BME280;56358;56.328;43.992;2023-03-25T04:40:07;99655.38;;;4.30;83.80
69247;BME280;56358;56.328;43.992;2023-03-25T04:42:08;99660.06;;;4.26;83.87
69247;BME280;56358;56.328;43.992;2023-03-25T04:44:12;99666.69;;;4.19;83.79
69247;BME280;56358;56.328;43.992;2023-03-25T04:46:14;99638.69;;;4.00;83.85
69247;BME280;56358;56.328;43.992;2023-03-25T04:48:26;99628.97;;;3.86;83.94
69247;BME280;56358;56.328;43.992;2023-03-25T04:50:31;99641.84;;;3.93;84.08
69247;BME280;56358;56.328;43.992;2023-03-25T04:52:33;99621.41;;;3.80;83.94
69247;BME280;56358;56.328;43.992;2023-03-25T04:54:33;99663.91;;;3.93;84.17
69247;BME280;56358;56.328;43.992;2023-03-25T04:56:34;99638.38;;;3.78;84.29
69247;BME280;56358;56.328;43.992;2023-03-25T04:58:36;99668.00;;;3.84;84.43
69247;BME280;56358;56.328;43.992;2023-03-25T05:00:37;99662.16;;;3.79;84.78
69247;BME280;56358;56.328;43.992;2023-03-25T05:02:45;99576.97;;;3.28;84.75
69247;BME280;56358;56.328;43.992;2023-03-25T05:04:46;99654.19;;;3.79;84.85
69247;BME280;56358;56.328;43.992;2023-03-25T05:06:48;99646.41;;;3.76;85.07
69247;BME280;56358;56.328;43.992;2023-03-25T05:08:50;99636.94;;;3.86;85.08
69247;BME280;56358;56.328;43.992;2023-03-25T05:10:51;99643.06;;;3.87;85.35
69247;BME280;56358;56.328;43.992;2023-03-25T05:13:03;99645.84;;;3.85;84.91
69247;BME280;56358;56.328;43.992;2023-03-25T05:15:05;99636.72;;;3.90;84.99
69247;BME280;56358;56.328;43.992;2023-03-25T05:17:05;99664.84;;;4.07;84.75
69247;BME280;56358;56.328;43.992;2023-03-25T05:19:06;99653.63;;;4.16;84.72
69247;BME280;56358;56.328;43.992;2023-03-25T05:21:07;99624.75;;;4.11;84.36
69247;BME280;56358;56.328;43.992;2023-03-25T05:23:10;99655.75;;;4.38;83.97
69247;BME280;56358;56.328;43.992;2023-03-25T05:25:17;99656.66;;;4.51;83.69
69247;BME280;56358;56.328;43.992;2023-03-25T05:27:21;99633.66;;;4.65;83.05
69247;BME280;56358;56.328;43.992;2023-03-25T05:29:22;99630.34;;;4.74;82.24
69247;BME280;56358;56.328;43.992;2023-03-25T05:31:23;99641.34;;;4.82;81.90
69247;BME280;56358;56.328;43.992;2023-03-25T05:33:23;99635.19;;;4.95;82.04
69247;BME280;56358;56.328;43.992;2023-03-25T05:35:25;99635.28;;;5.06;81.82
69247;BME280;56358;56.328;43.992;2023-03-25T05:37:26;99628.28;;;5.18;81.35
69247;BME280;56358;56.328;43.992;2023-03-25T05:39:27;99623.63;;;5.22;81.16
69247;BME280;56358;56.328;43.992;2023-03-25T05:41:28;99622.94;;;5.44;80.65
69247;BME280;56358;56.328;43.992;2023-03-25T05:43:32;99489.09;;;4.82;79.69
69247;BME280;56358;56.328;43.992;2023-03-25T05:45:35;99552.50;;;5.25;79.42
69247;BME280;56358;56.328;43.992;2023-03-25T05:47:35;99626.28;;;5.84;78.36
69247;BME280;56358;56.328;43.992;2023-03-25T05:49:36;99495.09;;;5.23;77.33
69247;BME280;56358;56.328;43.992;2023-03-25T05:51:37;99629.03;;;6.09;77.55
69247;BME280;56358;56.328;43.992;2023-03-25T05:53:38;99568.38;;;6.01;76.09
69247;BME280;56358;56.328;43.992;2023-03-25T05:55:39;99605.09;;;6.44;75.63
69247;BME280;56358;56.328;43.992;2023-03-25T05:57:40;99596.34;;;6.55;74.09
69247;BME280;56358;56.328;43.992;2023-03-25T05:59:40;99484.81;;;6.03;73.64
69247;BME280;56358;56.328;43.992;2023-03-25T06:01:41;99623.06;;;6.89;72.93
69247;BME280;56358;56.328;43.992;2023-03-25T06:03:45;99563.53;;;6.54;72.29
69247;BME280;56358;56.328;43.992;2023-03-25T06:05:46;99558.31;;;6.53;71.62
69247;BME280;56358;56.328;43.992;2023-03-25T06:07:47;99623.34;;;6.97;71.66
69247;BME280;56358;56.328;43.992;2023-03-25T06:09:49;99594.47;;;6.91;71.59
69247;BME280;56358;56.328;43.992;2023-03-25T06:11:53;99583.09;;;6.89;71.65
69247;BME280;56358;56.328;43.992;2023-03-25T06:13:53;99615.84;;;7.02;71.44
69247;BME280;56358;56.328;43.992;2023-03-25T06:15:54;99551.47;;;6.73;71.58
69247;BME280;56358;56.328;43.992;2023-03-25T06:17:59;99599.47;;;7.07;71.76
69247;BME280;56358;56.328;43.992;2023-03-25T06:19:59;99607.25;;;7.10;71.58
69247;BME280;56358;56.328;43.992;2023-03-25T06:22:01;99581.81;;;7.06;71.25
69247;BME280;56358;56.328;43.992;2023-03-25T06:24:03;99591.75;;;7.15;71.18
69247;BME280;56358;56.328;43.992;2023-03-25T06:26:04;99570.53;;;7.14;70.30
69247;BME280;56358;56.328;43.992;2023-03-25T06:28:04;99595.63;;;7.45;70.45
69247;BME280;56358;56.328;43.992;2023-03-25T06:30:08;99588.97;;;7.51;69.89
69247;BME280;56358;56.328;43.992;2023-03-25T06:32:11;99605.44;;;7.67;69.06
69247;BME280;56358;56.328;43.992;2023-03-25T06:34:12;99598.03;;;7.71;68.26
69247;BME280;56358;56.328;43.992;2023-03-25T06:36:15;99605.44;;;7.79;68.60
69247;BME280;56358;56.328;43.992;2023-03-25T06:38:18;99528.22;;;7.43;68.42
69247;BME280;56358;56.328;43.992;2023-03-25T06:40:20;99590.75;;;7.84;68.18
69247;BME280;56358;56.328;43.992;2023-03-25T06:42:28;99596.19;;;7.94;67.74
69247;BME280;56358;56.328;43.992;2023-03-25T06:44:28;99551.72;;;7.72;67.56
69247;BME280;56358;56.328;43.992;2023-03-25T06:46:29;99594.22;;;8.08;67.68
69247;BME280;56358;56.328;43.992;2023-03-25T06:48:30;99585.72;;;8.14;67.10
69247;BME280;56358;56.328;43.992;2023-03-25T06:50:31;99586.19;;;8.19;66.77
69247;BME280;56358;56.328;43.992;2023-03-25T06:52:32;99568.66;;;8.26;66.72
69247;BME280;56358;56.328;43.992;2023-03-25T06:54:32;99549.00;;;8.27;66.28
69247;BME280;56358;56.328;43.992;2023-03-25T06:56:33;99488.78;;;8.02;65.54
69247;BME280;56358;56.328;43.992;2023-03-25T06:58:34;99575.53;;;8.51;65.13
69247;BME280;56358;56.328;43.992;2023-03-25T07:00:35;99476.19;;;8.04;64.94
69247;BME280;56358;56.328;43.992;2023-03-25T07:02:35;99560.22;;;8.53;64.76
69247;BME280;56358;56.328;43.992;2023-03-25T07:04:36;99556.81;;;8.51;64.38
69247;BME280;56358;56.328;43.992;2023-03-25T07:06:36;99531.63;;;8.33;64.10
69247;BME280;56358;56.328;43.992;2023-03-25T07:08:37;99495.91;;;8.13;64.84
69247;BME280;56358;56.328;43.992;2023-03-25T07:10:38;99562.34;;;8.60;64.63
69247;BME280;56358;56.328;43.992;2023-03-25T07:12:39;99555.22;;;8.60;64.44
69247;BME280;56358;56.328;43.992;2023-03-25T07:14:39;99490.06;;;8.19;64.49
69247;BME280;56358;56.328;43.992;2023-03-25T07:16:40;99552.06;;;8.55;64.28
69247;BME280;56358;56.328;43.992;2023-03-25T07:18:41;99539.69;;;8.54;64.82
69247;BME280;56358;56.328;43.992;2023-03-25T07:20:41;99536.31;;;8.52;64.30
69247;BME280;56358;56.328;43.992;2023-03-25T07:22:42;99542.25;;;8.44;64.55
69247;BME280;56358;56.328;43.992;2023-03-25T07:24:43;99536.41;;;8.50;64.44
69247;BME280;56358;56.328;43.992;2023-03-25T07:26:43;99553.50;;;8.59;64.05
69247;BME280;56358;56.328;43.992;2023-03-25T07:28:44;99527.63;;;8.60;63.28
69247;BME280;56358;56.328;43.992;2023-03-25T07:30:47;99535.00;;;8.67;63.11
69247;BME280;56358;56.328;43.992;2023-03-25T07:32:48;99534.06;;;8.78;63.73
69247;BME280;56358;56.328;43.992;2023-03-25T07:34:48;99539.88;;;8.83;63.09
69247;BME280;56358;56.328;43.992;2023-03-25T07:36:49;99531.91;;;8.93;62.92
69247;BME280;56358;56.328;43.992;2023-03-25T07:38:49;99447.88;;;8.55;62.38
69247;BME280;56358;56.328;43.992;2023-03-25T07:40:50;99513.97;;;9.05;62.00
69247;BME280;56358;56.328;43.992;2023-03-25T07:42:51;99538.25;;;9.23;61.41
69247;BME280;56358;56.328;43.992;2023-03-25T07:44:51;99517.03;;;9.31;60.83
69247;BME280;56358;56.328;43.992;2023-03-25T07:46:52;99516.75;;;9.34;60.20
69247;BME280;56358;56.328;43.992;2023-03-25T07:48:53;99515.13;;;9.53;60.09
69247;BME280;56358;56.328;43.992;2023-03-25T07:50:54;99525.47;;;9.67;59.67
69247;BME280;56358;56.328;43.992;2023-03-25T07:52:55;99483.72;;;9.55;58.84
69247;BME280;56358;56.328;43.992;2023-03-25T07:54:55;99515.19;;;9.82;58.84
69247;BME280;56358;56.328;43.992;2023-03-25T07:56:56;99509.28;;;9.88;58.40
69247;BME280;56358;56.328;43.992;2023-03-25T07:58:57;99504.78;;;9.99;57.49
69247;BME280;56358;56.328;43.992;2023-03-25T08:00:57;99494.78;;;10.01;57.37
69247;BME280;56358;56.328;43.992;2023-03-25T08:02:58;99494.34;;;10.05;57.13
69247;BME280;56358;56.328;43.992;2023-03-25T08:04:59;99499.59;;;10.17;57.22
69247;BME280;56358;56.328;43.992;2023-03-25T08:06:59;99432.22;;;9.82;56.30
69247;BME280;56358;56.328;43.992;2023-03-25T08:09:00;99430.66;;;9.70;55.44
69247;BME280;56358;56.328;43.992;2023-03-25T08:11:00;99489.72;;;10.07;55.59
69247;BME280;56358;56.328;43.992;2023-03-25T08:13:01;99470.13;;;9.97;55.79
69247;BME280;56358;56.328;43.992;2023-03-25T08:15:02;99483.06;;;9.92;55.77
69247;BME280;56358;56.328;43.992;2023-03-25T08:17:05;99456.88;;;10.05;55.83
69247;BME280;56358;56.328;43.992;2023-03-25T08:19:06;99476.59;;;10.14;55.08
69247;BME280;56358;56.328;43.992;2023-03-25T08:21:07;99492.25;;;10.09;54.93
69247;BME280;56358;56.328;43.992;2023-03-25T08:23:09;99463.91;;;9.87;55.30
69247;BME280;56358;56.328;43.992;2023-03-25T08:25:10;99406.13;;;9.55;55.80
69247;BME280;56358;56.328;43.992;2023-03-25T08:27:10;99460.09;;;9.89;55.95
69247;BME280;56358;56.328;43.992;2023-03-25T08:29:11;99391.06;;;9.54;55.85
69247;BME280;56358;56.328;43.992;2023-03-25T08:31:12;99429.25;;;9.85;56.00
69247;BME280;56358;56.328;43.992;2023-03-25T08:33:12;99428.84;;;9.90;55.26
69247;BME280;56358;56.328;43.992;2023-03-25T08:35:13;99424.31;;;10.10;55.21
69247;BME280;56358;56.328;43.992;2023-03-25T08:37:14;99435.16;;;10.09;54.91
69247;BME280;56358;56.328;43.992;2023-03-25T08:39:15;99382.47;;;9.80;55.26
69247;BME280;56358;56.328;43.992;2023-03-25T08:41:16;99378.53;;;9.84;54.87
69247;BME280;56358;56.328;43.992;2023-03-25T08:43:17;99385.13;;;9.89;54.82
69247;BME280;56358;56.328;43.992;2023-03-25T08:45:18;99426.94;;;10.30;54.66
69247;BME280;56358;56.328;43.992;2023-03-25T08:47:19;99439.81;;;10.36;54.18
69247;BME280;56358;56.328;43.992;2023-03-25T08:49:19;99423.59;;;10.37;53.73
69247;BME280;56358;56.328;43.992;2023-03-25T08:51:20;99432.34;;;10.39;53.34
69247;BME280;56358;56.328;43.992;2023-03-25T08:53:21;99428.38;;;10.44;53.34
69247;BME280;56358;56.328;43.992;2023-03-25T08:55:22;99416.91;;;10.51;53.03
69247;BME280;56358;56.328;43.992;2023-03-25T08:57:23;99430.94;;;10.83;52.46
69247;BME280;56358;56.328;43.992;2023-03-25T08:59:24;99417.31;;;11.04;51.80
69247;BME280;56358;56.328;43.992;2023-03-25T09:01:24;99410.25;;;11.31;50.90
69247;BME280;56358;56.328;43.992;2023-03-25T09:03:26;99409.34;;;11.58;50.18
69247;BME280;56358;56.328;43.992;2023-03-25T09:05:27;99413.25;;;11.82;49.53
69247;BME280;56358;56.328;43.992;2023-03-25T09:07:27;99408.06;;;11.98;49.43
69247;BME280;56358;56.328;43.992;2023-03-25T09:09:29;99394.78;;;11.97;48.42
69247;BME280;56358;56.328;43.992;2023-03-25T09:11:31;99304.19;;;11.45;48.60
69247;BME280;56358;56.328;43.992;2023-03-25T09:13:31;99345.91;;;11.57;48.33
69247;BME280;56358;56.328;43.992;2023-03-25T09:15:32;99409.66;;;11.91;48.36
69247;BME280;56358;56.328;43.992;2023-03-25T09:17:33;99413.25;;;11.82;48.85
69247;BME280;56358;56.328;43.992;2023-03-25T09:19:33;99393.25;;;11.76;48.64
69247;BME280;56358;56.328;43.992;2023-03-25T09:21:34;99395.16;;;11.66;48.65
69247;BME280;56358;56.328;43.992;2023-03-25T09:23:35;99397.69;;;11.49;48.55
69247;BME280;56358;56.328;43.992;2023-03-25T09:25:36;99389.41;;;11.43;49.16
69247;BME280;56358;56.328;43.992;2023-03-25T09:27:37;99390.34;;;11.23;49.50
69247;BME280;56358;56.328;43.992;2023-03-25T09:29:37;99332.31;;;10.77;49.91
69247;BME280;56358;56.328;43.992;2023-03-25T09:31:38;99381.13;;;11.08;49.54
69247;BME280;56358;56.328;43.992;2023-03-25T09:33:39;99376.13;;;10.95;49.86
69247;BME280;56358;56.328;43.992;2023-03-25T09:35:40;99379.50;;;10.97;49.97
69247;BME280;56358;56.328;43.992;2023-03-25T09:37:40;99379.28;;;11.09;49.96
69247;BME280;56358;56.328;43.992;2023-03-25T09:39:42;99360.09;;;11.31;49.76
69247;BME280;56358;56.328;43.992;2023-03-25T09:44:36;99304.56;;;10.96;49.70
69247;BME280;56358;56.328;43.992;2023-03-25T09:46:43;99324.25;;;11.04;50.17
69247;BME280;56358;56.328;43.992;2023-03-25T09:48:45;99348.94;;;11.08;50.52
69247;BME280;56358;56.328;43.992;2023-03-25T09:50:47;99344.56;;;10.89;51.01
69247;BME280;56358;56.328;43.992;2023-03-25T09:55:20;99324.97;;;10.51;51.96
69247;BME280;56358;56.328;43.992;2023-03-25T09:57:30;99325.72;;;10.33;53.00
69247;BME280;56358;56.328;43.992;2023-03-25T09:59:47;99312.63;;;10.20;53.67
69247;BME280;56358;56.328;43.992;2023-03-25T10:02:00;99309.69;;;10.14;53.72
69247;BME280;56358;56.328;43.992;2023-03-25T10:06:22;99312.53;;;10.12;54.45
69247;BME280;56358;56.328;43.992;2023-03-25T10:08:59;99259.78;;;9.75;54.73
69247;BME280;56358;56.328;43.992;2023-03-25T10:11:06;99302.69;;;10.03;54.87
69247;BME280;56358;56.328;43.992;2023-03-25T10:15:55;99294.50;;;10.04;55.12
69247;BME280;56358;56.328;43.992;2023-03-25T10:20:37;99261.00;;;9.90;55.84
69247;BME280;56358;56.328;43.992;2023-03-25T10:25:15;99246.31;;;10.04;56.12
69247;BME280;56358;56.328;43.992;2023-03-25T10:32:15;99243.09;;;10.29;55.93
69247;BME280;56358;56.328;43.992;2023-03-25T10:34:20;99221.66;;;10.38;55.84
69247;BME280;56358;56.328;43.992;2023-03-25T10:36:31;99222.16;;;10.52;55.70
69247;BME280;56358;56.328;43.992;2023-03-25T10:38:34;99210.69;;;10.60;55.47
69247;BME280;56358;56.328;43.992;2023-03-25T10:40:41;99199.66;;;10.81;55.32
69247;BME280;56358;56.328;43.992;2023-03-25T10:45:14;99157.63;;;10.81;54.86
69247;BME280;56358;56.328;43.992;2023-03-25T10:47:19;99170.41;;;11.05;54.44
69247;BME280;56358;56.328;43.992;2023-03-25T10:49:26;99206.28;;;11.49;53.85
69247;BME280;56358;56.328;43.992;2023-03-25T10:51:34;99151.41;;;11.43;53.06
69247;BME280;56358;56.328;43.992;2023-03-25T10:53:35;99175.19;;;12.33;52.57
69247;BME280;56358;56.328;43.992;2023-03-25T10:55:37;99220.91;;;13.25;50.46
69247;BME280;56358;56.328;43.992;2023-03-25T10:57:40;99189.63;;;13.57;48.65
69247;BME280;56358;56.328;43.992;2023-03-25T10:59:57;99206.03;;;14.04;47.95
69247;BME280;56358;56.328;43.992;2023-03-25T11:02:04;99222.16;;;14.52;47.17
69247;BME280;56358;56.328;43.992;2023-03-25T11:04:16;99217.94;;;14.89;46.54
69247;BME280;56358;56.328;43.992;2023-03-25T11:06:29;99205.22;;;15.59;44.47
69247;BME280;56358;56.328;43.992;2023-03-25T11:08:31;99187.66;;;15.78;43.93
69247;BME280;56358;56.328;43.992;2023-03-25T11:10:32;99214.00;;;15.76;44.61
69247;BME280;56358;56.328;43.992;2023-03-25T11:12:33;99211.47;;;15.59;44.47
69247;BME280;56358;56.328;43.992;2023-03-25T11:14:37;99182.47;;;15.38;45.06
69247;BME280;56358;56.328;43.992;2023-03-25T11:16:51;99189.09;;;15.13;45.59
69247;BME280;56358;56.328;43.992;2023-03-25T11:18:53;99183.66;;;14.66;46.46
69247;BME280;56358;56.328;43.992;2023-03-25T11:23:32;99184.31;;;13.97;48.00
69247;BME280;56358;56.328;43.992;2023-03-25T11:25:38;99191.47;;;13.49;49.73
69247;BME280;56358;56.328;43.992;2023-03-25T11:28:02;99202.72;;;13.03;50.67
69247;BME280;56358;56.328;43.992;2023-03-25T11:30:06;99202.81;;;12.68;51.66
69247;BME280;56358;56.328;43.992;2023-03-25T11:32:15;99203.59;;;12.44;52.28
69247;BME280;56358;56.328;43.992;2023-03-25T11:34:20;99189.63;;;12.32;52.68
69247;BME280;56358;56.328;43.992;2023-03-25T11:36:27;99125.78;;;11.83;53.27
69247;BME280;56358;56.328;43.992;2023-03-25T11:38:29;99197.59;;;12.07;53.88
69247;BME280;56358;56.328;43.992;2023-03-25T11:40:34;99222.72;;;11.98;54.04
69247;BME280;56358;56.328;43.992;2023-03-25T11:42:40;99188.69;;;11.81;54.49
69247;BME280;56358;56.328;43.992;2023-03-25T11:44:49;99187.13;;;11.70;55.52
69247;BME280;56358;56.328;43.992;2023-03-25T11:46:53;99160.28;;;11.44;55.65
69247;BME280;56358;56.328;43.992;2023-03-25T11:48:54;99107.84;;;11.05;55.80